Glenwood, Florida
Current Conditions -  °F | °C
As of 5:53 PM on Wednesday 17 Dec 2014 (Local Time) from KDAB Reporting Station
Few Clouds Few Clouds  
Wind Chill: 60°   Ceiling: Unl
Heat Index: 60°   Visibility: 10mi
Dew Point: 52°   Wind: 0mph
Humidity: 75%   Direction: NA
Pressure: 30.12"   Gusts: NA
Location:  29.09°N, 81.35°W
Report Text: KDAB 172253Z 00000KT 10SM FEW200 16/11 A3012 RMK AO2 SLP198 T01560111
Loading
Personal Weather Stations






























Interactive Weather Map New forecast layout! Learn more

10-Day Weather Forecast

Advertisements
Track Severe Weather on mobile